sensor_id;sensor_type;location;lat;lon;timestamp;P1;durP1;ratioP1;P2;durP2;ratioP2
3769;SDS011;1900;48.890;9.190;2024-03-02T00:00:21;19.40;;;11.83;;
3769;SDS011;1900;48.890;9.190;2024-03-02T00:02:48;14.70;;;11.20;;
3769;SDS011;1900;48.890;9.190;2024-03-02T00:05:15;16.60;;;11.37;;
3769;SDS011;1900;48.890;9.190;2024-03-02T00:07:43;19.63;;;12.10;;
3769;SDS011;1900;48.890;9.190;2024-03-02T00:10:11;18.70;;;11.33;;
3769;SDS011;1900;48.890;9.190;2024-03-02T00:12:41;18.80;;;12.50;;
3769;SDS011;1900;48.890;9.190;2024-03-02T00:15:22;16.20;;;12.07;;
3769;SDS011;1900;48.890;9.190;2024-03-02T00:18:04;17.60;;;11.40;;
3769;SDS011;1900;48.890;9.190;2024-03-02T00:20:30;19.73;;;12.10;;
3769;SDS011;1900;48.890;9.190;2024-03-02T00:23:03;21.70;;;13.80;;
3769;SDS011;1900;48.890;9.190;2024-03-02T00:25:40;19.13;;;12.10;;
3769;SDS011;1900;48.890;9.190;2024-03-02T00:28:14;17.70;;;10.70;;
3769;SDS011;1900;48.890;9.190;2024-03-02T00:33:08;17.70;;;11.37;;
3769;SDS011;1900;48.890;9.190;2024-03-02T00:35:35;14.03;;;10.53;;
3769;SDS011;1900;48.890;9.190;2024-03-02T00:38:03;15.43;;;10.27;;
3769;SDS011;1900;48.890;9.190;2024-03-02T00:40:31;19.00;;;11.97;;
3769;SDS011;1900;48.890;9.190;2024-03-02T00:42:57;21.33;;;12.60;;
3769;SDS011;1900;48.890;9.190;2024-03-02T00:45:23;16.10;;;10.67;;
3769;SDS011;1900;48.890;9.190;2024-03-02T00:47:50;23.00;;;11.90;;
3769;SDS011;1900;48.890;9.190;2024-03-02T00:50:16;18.10;;;11.57;;
3769;SDS011;1900;48.890;9.190;2024-03-02T00:52:42;20.03;;;10.73;;
3769;SDS011;1900;48.890;9.190;2024-03-02T00:55:08;16.83;;;11.83;;
3769;SDS011;1900;48.890;9.190;2024-03-02T00:57:34;27.77;;;11.87;;
3769;SDS011;1900;48.890;9.190;2024-03-02T01:00:03;17.23;;;10.47;;
3769;SDS011;1900;48.890;9.190;2024-03-02T01:02:33;19.90;;;12.27;;
3769;SDS011;1900;48.890;9.190;2024-03-02T01:04:59;15.87;;;10.73;;
3769;SDS011;1900;48.890;9.190;2024-03-02T01:07:25;17.20;;;11.30;;
3769;SDS011;1900;48.890;9.190;2024-03-02T01:09:50;18.03;;;10.97;;
3769;SDS011;1900;48.890;9.190;2024-03-02T01:12:16;18.77;;;11.20;;
3769;SDS011;1900;48.890;9.190;2024-03-02T01:14:41;18.00;;;11.53;;
3769;SDS011;1900;48.890;9.190;2024-03-02T01:17:07;21.37;;;12.23;;
3769;SDS011;1900;48.890;9.190;2024-03-02T01:19:33;18.47;;;11.37;;
3769;SDS011;1900;48.890;9.190;2024-03-02T01:21:59;22.70;;;11.93;;
3769;SDS011;1900;48.890;9.190;2024-03-02T01:24:24;18.37;;;11.30;;
3769;SDS011;1900;48.890;9.190;2024-03-02T01:26:50;18.93;;;11.53;;
3769;SDS011;1900;48.890;9.190;2024-03-02T01:29:16;21.07;;;12.27;;
3769;SDS011;1900;48.890;9.190;2024-03-02T01:31:41;20.53;;;12.93;;
3769;SDS011;1900;48.890;9.190;2024-03-02T01:34:07;19.73;;;12.13;;
3769;SDS011;1900;48.890;9.190;2024-03-02T01:36:33;20.20;;;12.30;;
3769;SDS011;1900;48.890;9.190;2024-03-02T01:38:59;20.60;;;12.33;;
3769;SDS011;1900;48.890;9.190;2024-03-02T01:41:25;19.00;;;11.97;;
3769;SDS011;1900;48.890;9.190;2024-03-02T01:43:50;19.07;;;11.70;;
3769;SDS011;1900;48.890;9.190;2024-03-02T01:46:16;17.83;;;11.57;;
3769;SDS011;1900;48.890;9.190;2024-03-02T01:48:42;19.10;;;12.53;;
3769;SDS011;1900;48.890;9.190;2024-03-02T01:51:07;19.20;;;11.30;;
3769;SDS011;1900;48.890;9.190;2024-03-02T01:53:34;23.10;;;12.33;;
3769;SDS011;1900;48.890;9.190;2024-03-02T01:56:00;20.20;;;12.10;;
3769;SDS011;1900;48.890;9.190;2024-03-02T01:58:26;19.00;;;11.47;;
3769;SDS011;1900;48.890;9.190;2024-03-02T02:00:52;16.93;;;11.90;;
3769;SDS011;1900;48.890;9.190;2024-03-02T02:03:18;17.13;;;11.47;;
3769;SDS011;1900;48.890;9.190;2024-03-02T02:05:44;17.33;;;11.03;;
3769;SDS011;1900;48.890;9.190;2024-03-02T02:08:12;23.93;;;14.10;;
3769;SDS011;1900;48.890;9.190;2024-03-02T02:10:37;18.77;;;11.70;;
3769;SDS011;1900;48.890;9.190;2024-03-02T02:13:03;15.97;;;11.00;;
3769;SDS011;1900;48.890;9.190;2024-03-02T02:15:29;16.30;;;10.57;;
3769;SDS011;1900;48.890;9.190;2024-03-02T02:17:56;17.23;;;11.00;;
3769;SDS011;1900;48.890;9.190;2024-03-02T02:20:22;18.33;;;11.60;;
3769;SDS011;1900;48.890;9.190;2024-03-02T02:22:56;17.57;;;11.43;;
3769;SDS011;1900;48.890;9.190;2024-03-02T02:25:22;16.60;;;10.53;;
3769;SDS011;1900;48.890;9.190;2024-03-02T02:27:48;19.37;;;12.00;;
3769;SDS011;1900;48.890;9.190;2024-03-02T02:30:18;16.13;;;11.30;;
3769;SDS011;1900;48.890;9.190;2024-03-02T02:32:47;15.90;;;11.40;;
3769;SDS011;1900;48.890;9.190;2024-03-02T02:35:13;15.27;;;10.43;;
3769;SDS011;1900;48.890;9.190;2024-03-02T02:37:39;20.63;;;11.63;;
3769;SDS011;1900;48.890;9.190;2024-03-02T02:40:05;15.00;;;10.10;;
3769;SDS011;1900;48.890;9.190;2024-03-02T02:42:31;20.33;;;11.50;;
3769;SDS011;1900;48.890;9.190;2024-03-02T02:44:56;16.60;;;10.93;;
3769;SDS011;1900;48.890;9.190;2024-03-02T02:47:22;18.37;;;11.20;;
3769;SDS011;1900;48.890;9.190;2024-03-02T02:49:48;14.67;;;10.17;;
3769;SDS011;1900;48.890;9.190;2024-03-02T02:52:13;18.40;;;12.00;;
3769;SDS011;1900;48.890;9.190;2024-03-02T02:54:39;18.03;;;11.63;;
3769;SDS011;1900;48.890;9.190;2024-03-02T02:57:04;21.13;;;13.10;;
3769;SDS011;1900;48.890;9.190;2024-03-02T02:59:30;22.93;;;12.50;;
3769;SDS011;1900;48.890;9.190;2024-03-02T03:01:56;25.30;;;13.03;;
3769;SDS011;1900;48.890;9.190;2024-03-02T03:04:21;23.23;;;13.43;;
3769;SDS011;1900;48.890;9.190;2024-03-02T03:06:47;28.67;;;12.20;;
3769;SDS011;1900;48.890;9.190;2024-03-02T03:09:13;16.50;;;11.27;;
3769;SDS011;1900;48.890;9.190;2024-03-02T03:11:38;15.73;;;11.17;;
3769;SDS011;1900;48.890;9.190;2024-03-02T03:14:04;17.87;;;11.13;;
3769;SDS011;1900;48.890;9.190;2024-03-02T03:16:30;21.63;;;12.80;;
3769;SDS011;1900;48.890;9.190;2024-03-02T03:18:55;25.83;;;13.83;;
3769;SDS011;1900;48.890;9.190;2024-03-02T03:21:21;18.03;;;12.93;;
3769;SDS011;1900;48.890;9.190;2024-03-02T03:23:47;19.73;;;11.83;;
3769;SDS011;1900;48.890;9.190;2024-03-02T03:26:12;20.10;;;11.73;;
3769;SDS011;1900;48.890;9.190;2024-03-02T03:28:38;18.20;;;11.97;;
3769;SDS011;1900;48.890;9.190;2024-03-02T03:31:04;22.30;;;11.43;;
3769;SDS011;1900;48.890;9.190;2024-03-02T03:33:29;19.30;;;11.60;;
3769;SDS011;1900;48.890;9.190;2024-03-02T03:35:55;14.87;;;10.70;;
3769;SDS011;1900;48.890;9.190;2024-03-02T03:38:21;16.63;;;10.83;;
3769;SDS011;1900;48.890;9.190;2024-03-02T03:40:46;17.50;;;10.50;;
3769;SDS011;1900;48.890;9.190;2024-03-02T03:43:12;18.50;;;11.63;;
3769;SDS011;1900;48.890;9.190;2024-03-02T03:45:38;20.50;;;12.70;;
3769;SDS011;1900;48.890;9.190;2024-03-02T03:48:04;27.77;;;13.87;;
3769;SDS011;1900;48.890;9.190;2024-03-02T03:50:30;18.10;;;11.20;;
3769;SDS011;1900;48.890;9.190;2024-03-02T03:52:55;18.83;;;12.57;;
3769;SDS011;1900;48.890;9.190;2024-03-02T03:55:21;20.67;;;12.47;;
3769;SDS011;1900;48.890;9.190;2024-03-02T03:57:47;16.80;;;11.83;;
3769;SDS011;1900;48.890;9.190;2024-03-02T04:00:13;19.67;;;12.87;;
3769;SDS011;1900;48.890;9.190;2024-03-02T04:02:39;18.63;;;11.40;;
3769;SDS011;1900;48.890;9.190;2024-03-02T04:05:05;20.13;;;11.80;;
3769;SDS011;1900;48.890;9.190;2024-03-02T04:07:35;20.30;;;12.03;;
3769;SDS011;1900;48.890;9.190;2024-03-02T04:10:05;18.53;;;12.27;;
3769;SDS011;1900;48.890;9.190;2024-03-02T04:12:33;15.67;;;10.20;;
3769;SDS011;1900;48.890;9.190;2024-03-02T04:15:00;21.83;;;12.97;;
3769;SDS011;1900;48.890;9.190;2024-03-02T04:17:27;18.53;;;11.70;;
3769;SDS011;1900;48.890;9.190;2024-03-02T04:19:52;19.43;;;11.83;;
3769;SDS011;1900;48.890;9.190;2024-03-02T04:22:18;21.43;;;11.47;;
3769;SDS011;1900;48.890;9.190;2024-03-02T04:24:44;17.53;;;11.50;;
3769;SDS011;1900;48.890;9.190;2024-03-02T04:27:10;21.43;;;11.23;;
3769;SDS011;1900;48.890;9.190;2024-03-02T04:29:35;21.10;;;11.70;;
3769;SDS011;1900;48.890;9.190;2024-03-02T04:32:01;17.33;;;11.77;;
3769;SDS011;1900;48.890;9.190;2024-03-02T04:34:26;20.90;;;11.03;;
3769;SDS011;1900;48.890;9.190;2024-03-02T04:36:52;19.53;;;11.23;;
3769;SDS011;1900;48.890;9.190;2024-03-02T04:39:18;15.53;;;10.50;;
3769;SDS011;1900;48.890;9.190;2024-03-02T04:41:43;18.13;;;11.40;;
3769;SDS011;1900;48.890;9.190;2024-03-02T04:44:09;18.13;;;10.73;;
3769;SDS011;1900;48.890;9.190;2024-03-02T04:46:35;20.57;;;12.23;;
3769;SDS011;1900;48.890;9.190;2024-03-02T04:49:00;21.87;;;12.37;;
3769;SDS011;1900;48.890;9.190;2024-03-02T04:51:26;20.90;;;12.00;;
3769;SDS011;1900;48.890;9.190;2024-03-02T04:53:52;21.23;;;12.10;;
3769;SDS011;1900;48.890;9.190;2024-03-02T04:56:17;22.10;;;12.30;;
3769;SDS011;1900;48.890;9.190;2024-03-02T04:59:02;24.90;;;11.63;;
3769;SDS011;1900;48.890;9.190;2024-03-02T05:01:27;21.10;;;11.77;;
3769;SDS011;1900;48.890;9.190;2024-03-02T05:03:53;18.07;;;10.50;;
3769;SDS011;1900;48.890;9.190;2024-03-02T05:06:19;20.80;;;12.47;;
3769;SDS011;1900;48.890;9.190;2024-03-02T05:08:45;20.20;;;12.37;;
3769;SDS011;1900;48.890;9.190;2024-03-02T05:11:10;20.20;;;12.20;;
3769;SDS011;1900;48.890;9.190;2024-03-02T05:14:13;18.83;;;11.10;;
3769;SDS011;1900;48.890;9.190;2024-03-02T05:16:39;22.40;;;12.10;;
3769;SDS011;1900;48.890;9.190;2024-03-02T05:19:06;21.93;;;11.63;;
3769;SDS011;1900;48.890;9.190;2024-03-02T05:21:33;21.33;;;12.10;;
3769;SDS011;1900;48.890;9.190;2024-03-02T05:23:59;18.90;;;11.87;;
3769;SDS011;1900;48.890;9.190;2024-03-02T05:26:24;19.07;;;11.87;;
3769;SDS011;1900;48.890;9.190;2024-03-02T05:28:50;19.97;;;11.37;;
3769;SDS011;1900;48.890;9.190;2024-03-02T05:31:16;20.00;;;12.20;;
3769;SDS011;1900;48.890;9.190;2024-03-02T05:33:42;26.63;;;11.50;;
3769;SDS011;1900;48.890;9.190;2024-03-02T05:36:08;21.13;;;12.20;;
3769;SDS011;1900;48.890;9.190;2024-03-02T05:38:34;23.10;;;11.90;;
3769;SDS011;1900;48.890;9.190;2024-03-02T05:41:00;21.30;;;11.67;;
3769;SDS011;1900;48.890;9.190;2024-03-02T05:43:26;21.60;;;11.97;;
3769;SDS011;1900;48.890;9.190;2024-03-02T05:45:52;18.37;;;11.17;;
3769;SDS011;1900;48.890;9.190;2024-03-02T05:48:17;19.80;;;11.70;;
3769;SDS011;1900;48.890;9.190;2024-03-02T05:50:43;18.20;;;11.10;;
3769;SDS011;1900;48.890;9.190;2024-03-02T05:53:09;18.87;;;11.20;;
3769;SDS011;1900;48.890;9.190;2024-03-02T05:55:34;18.90;;;11.50;;
3769;SDS011;1900;48.890;9.190;2024-03-02T05:58:00;20.80;;;11.70;;
3769;SDS011;1900;48.890;9.190;2024-03-02T06:00:32;17.87;;;11.43;;
3769;SDS011;1900;48.890;9.190;2024-03-02T06:02:58;24.67;;;11.27;;
3769;SDS011;1900;48.890;9.190;2024-03-02T06:05:24;20.57;;;13.00;;
3769;SDS011;1900;48.890;9.190;2024-03-02T06:07:50;20.93;;;12.50;;
3769;SDS011;1900;48.890;9.190;2024-03-02T06:10:16;25.17;;;13.90;;
3769;SDS011;1900;48.890;9.190;2024-03-02T06:12:42;20.97;;;13.17;;
3769;SDS011;1900;48.890;9.190;2024-03-02T06:15:08;20.27;;;12.00;;
3769;SDS011;1900;48.890;9.190;2024-03-02T06:17:35;19.07;;;13.00;;
3769;SDS011;1900;48.890;9.190;2024-03-02T06:20:01;20.93;;;11.83;;
3769;SDS011;1900;48.890;9.190;2024-03-02T06:22:27;23.23;;;12.47;;
3769;SDS011;1900;48.890;9.190;2024-03-02T06:24:53;26.83;;;13.60;;
3769;SDS011;1900;48.890;9.190;2024-03-02T06:27:19;24.60;;;13.43;;
3769;SDS011;1900;48.890;9.190;2024-03-02T06:29:45;19.30;;;12.13;;
3769;SDS011;1900;48.890;9.190;2024-03-02T06:32:10;22.57;;;13.10;;
3769;SDS011;1900;48.890;9.190;2024-03-02T06:34:36;30.17;;;14.27;;
3769;SDS011;1900;48.890;9.190;2024-03-02T06:37:02;21.90;;;14.43;;
3769;SDS011;1900;48.890;9.190;2024-03-02T06:39:28;21.57;;;12.90;;
3769;SDS011;1900;48.890;9.190;2024-03-02T06:41:54;24.10;;;14.73;;
3769;SDS011;1900;48.890;9.190;2024-03-02T06:44:19;26.93;;;14.13;;
3769;SDS011;1900;48.890;9.190;2024-03-02T06:46:46;25.03;;;13.20;;
3769;SDS011;1900;48.890;9.190;2024-03-02T06:49:12;20.57;;;13.90;;
3769;SDS011;1900;48.890;9.190;2024-03-02T06:51:37;26.27;;;15.20;;
3769;SDS011;1900;48.890;9.190;2024-03-02T06:54:03;22.50;;;14.30;;
3769;SDS011;1900;48.890;9.190;2024-03-02T06:56:29;21.13;;;12.07;;
3769;SDS011;1900;48.890;9.190;2024-03-02T06:58:56;23.07;;;14.13;;
3769;SDS011;1900;48.890;9.190;2024-03-02T07:01:21;24.93;;;14.10;;
3769;SDS011;1900;48.890;9.190;2024-03-02T07:03:47;21.50;;;13.53;;
3769;SDS011;1900;48.890;9.190;2024-03-02T07:06:13;22.97;;;13.70;;
3769;SDS011;1900;48.890;9.190;2024-03-02T07:08:39;24.73;;;14.40;;
3769;SDS011;1900;48.890;9.190;2024-03-02T07:11:04;21.00;;;13.63;;
3769;SDS011;1900;48.890;9.190;2024-03-02T07:13:30;18.70;;;13.03;;
3769;SDS011;1900;48.890;9.190;2024-03-02T07:15:56;22.23;;;12.63;;
3769;SDS011;1900;48.890;9.190;2024-03-02T07:18:24;20.10;;;13.13;;
3769;SDS011;1900;48.890;9.190;2024-03-02T07:20:50;19.03;;;12.93;;
3769;SDS011;1900;48.890;9.190;2024-03-02T07:23:15;23.33;;;13.73;;
3769;SDS011;1900;48.890;9.190;2024-03-02T07:25:41;20.77;;;11.30;;
3769;SDS011;1900;48.890;9.190;2024-03-02T07:28:07;23.33;;;12.97;;
3769;SDS011;1900;48.890;9.190;2024-03-02T07:30:33;20.00;;;11.60;;
3769;SDS011;1900;48.890;9.190;2024-03-02T07:32:59;22.30;;;12.23;;
3769;SDS011;1900;48.890;9.190;2024-03-02T07:35:25;20.77;;;12.83;;
3769;SDS011;1900;48.890;9.190;2024-03-02T07:37:53;19.20;;;13.10;;
3769;SDS011;1900;48.890;9.190;2024-03-02T07:40:20;20.57;;;12.00;;
3769;SDS011;1900;48.890;9.190;2024-03-02T07:42:46;17.37;;;11.50;;
3769;SDS011;1900;48.890;9.190;2024-03-02T07:45:12;25.10;;;13.33;;
3769;SDS011;1900;48.890;9.190;2024-03-02T07:47:37;17.30;;;11.70;;
3769;SDS011;1900;48.890;9.190;2024-03-02T07:50:03;19.17;;;12.80;;
3769;SDS011;1900;48.890;9.190;2024-03-02T07:52:31;25.00;;;13.40;;
3769;SDS011;1900;48.890;9.190;2024-03-02T07:54:58;17.53;;;11.23;;
3769;SDS011;1900;48.890;9.190;2024-03-02T07:57:24;14.93;;;11.40;;
3769;SDS011;1900;48.890;9.190;2024-03-02T07:59:50;20.07;;;12.20;;
3769;SDS011;1900;48.890;9.190;2024-03-02T08:02:17;18.27;;;11.40;;
3769;SDS011;1900;48.890;9.190;2024-03-02T08:04:43;19.13;;;10.90;;
3769;SDS011;1900;48.890;9.190;2024-03-02T08:07:10;18.67;;;11.63;;
3769;SDS011;1900;48.890;9.190;2024-03-02T08:09:36;22.83;;;12.30;;
3769;SDS011;1900;48.890;9.190;2024-03-02T08:12:02;18.50;;;11.47;;
3769;SDS011;1900;48.890;9.190;2024-03-02T08:14:28;19.80;;;11.17;;
3769;SDS011;1900;48.890;9.190;2024-03-02T08:16:54;20.43;;;11.40;;
3769;SDS011;1900;48.890;9.190;2024-03-02T08:19:20;19.30;;;10.60;;
3769;SDS011;1900;48.890;9.190;2024-03-02T08:21:46;19.53;;;11.47;;
3769;SDS011;1900;48.890;9.190;2024-03-02T08:24:11;15.53;;;9.53;;
3769;SDS011;1900;48.890;9.190;2024-03-02T08:26:37;21.53;;;11.17;;
3769;SDS011;1900;48.890;9.190;2024-03-02T08:29:03;15.30;;;10.33;;
3769;SDS011;1900;48.890;9.190;2024-03-02T08:31:29;17.80;;;11.53;;
3769;SDS011;1900;48.890;9.190;2024-03-02T08:33:55;16.13;;;9.93;;
3769;SDS011;1900;48.890;9.190;2024-03-02T08:36:22;18.40;;;11.43;;
3769;SDS011;1900;48.890;9.190;2024-03-02T08:38:51;17.80;;;10.77;;
3769;SDS011;1900;48.890;9.190;2024-03-02T08:41:17;15.73;;;10.13;;
3769;SDS011;1900;48.890;9.190;2024-03-02T08:43:43;14.07;;;9.53;;
3769;SDS011;1900;48.890;9.190;2024-03-02T08:46:09;13.00;;;8.40;;
3769;SDS011;1900;48.890;9.190;2024-03-02T08:48:35;12.23;;;9.10;;
3769;SDS011;1900;48.890;9.190;2024-03-02T08:51:01;16.10;;;9.67;;
3769;SDS011;1900;48.890;9.190;2024-03-02T08:53:29;15.50;;;9.13;;
3769;SDS011;1900;48.890;9.190;2024-03-02T08:55:55;15.57;;;9.13;;
3769;SDS011;1900;48.890;9.190;2024-03-02T08:58:20;13.40;;;8.57;;
3769;SDS011;1900;48.890;9.190;2024-03-02T09:00:46;16.10;;;9.00;;
3769;SDS011;1900;48.890;9.190;2024-03-02T09:03:13;13.17;;;8.20;;
3769;SDS011;1900;48.890;9.190;2024-03-02T09:05:40;12.37;;;8.23;;
3769;SDS011;1900;48.890;9.190;2024-03-02T09:08:06;11.93;;;7.57;;
3769;SDS011;1900;48.890;9.190;2024-03-02T09:10:32;10.03;;;7.07;;
3769;SDS011;1900;48.890;9.190;2024-03-02T09:12:58;9.17;;;6.23;;
3769;SDS011;1900;48.890;9.190;2024-03-02T09:15:24;9.47;;;5.90;;
3769;SDS011;1900;48.890;9.190;2024-03-02T09:17:50;6.47;;;5.50;;
3769;SDS011;1900;48.890;9.190;2024-03-02T09:20:16;8.57;;;6.60;;
3769;SDS011;1900;48.890;9.190;2024-03-02T09:22:42;11.53;;;5.70;;
3769;SDS011;1900;48.890;9.190;2024-03-02T09:25:07;11.10;;;6.03;;
3769;SDS011;1900;48.890;9.190;2024-03-02T09:27:37;10.50;;;6.60;;
3769;SDS011;1900;48.890;9.190;2024-03-02T09:30:04;14.40;;;6.20;;
3769;SDS011;1900;48.890;9.190;2024-03-02T09:32:32;8.17;;;5.90;;
3769;SDS011;1900;48.890;9.190;2024-03-02T09:34:58;8.03;;;6.00;;
3769;SDS011;1900;48.890;9.190;2024-03-02T09:37:24;8.30;;;5.73;;
3769;SDS011;1900;48.890;9.190;2024-03-02T09:39:50;7.17;;;5.00;;
3769;SDS011;1900;48.890;9.190;2024-03-02T09:42:17;11.20;;;6.47;;
3769;SDS011;1900;48.890;9.190;2024-03-02T09:44:43;8.30;;;5.70;;
3769;SDS011;1900;48.890;9.190;2024-03-02T09:47:09;11.33;;;6.30;;
3769;SDS011;1900;48.890;9.190;2024-03-02T09:49:34;8.07;;;5.50;;
3769;SDS011;1900;48.890;9.190;2024-03-02T09:52:01;10.23;;;6.30;;
3769;SDS011;1900;48.890;9.190;2024-03-02T09:54:29;9.30;;;5.50;;
3769;SDS011;1900;48.890;9.190;2024-03-02T09:56:55;8.90;;;5.60;;
3769;SDS011;1900;48.890;9.190;2024-03-02T09:59:20;9.17;;;5.90;;
3769;SDS011;1900;48.890;9.190;2024-03-02T10:01:56;8.90;;;6.97;;
3769;SDS011;1900;48.890;9.190;2024-03-02T10:04:26;7.50;;;5.30;;
3769;SDS011;1900;48.890;9.190;2024-03-02T10:09:36;7.53;;;5.10;;
3769;SDS011;1900;48.890;9.190;2024-03-02T10:12:03;6.67;;;5.07;;
3769;SDS011;1900;48.890;9.190;2024-03-02T10:14:30;9.13;;;6.00;;
3769;SDS011;1900;48.890;9.190;2024-03-02T10:17:01;6.70;;;5.60;;
3769;SDS011;1900;48.890;9.190;2024-03-02T10:19:28;7.20;;;4.93;;
3769;SDS011;1900;48.890;9.190;2024-03-02T10:21:58;6.97;;;5.37;;
3769;SDS011;1900;48.890;9.190;2024-03-02T10:24:24;8.10;;;5.37;;
3769;SDS011;1900;48.890;9.190;2024-03-02T10:26:51;8.13;;;5.03;;
3769;SDS011;1900;48.890;9.190;2024-03-02T10:29:17;9.27;;;4.50;;
3769;SDS011;1900;48.890;9.190;2024-03-02T10:31:46;5.37;;;4.40;;
3769;SDS011;1900;48.890;9.190;2024-03-02T10:34:12;6.90;;;4.37;;
3769;SDS011;1900;48.890;9.190;2024-03-02T10:36:42;6.03;;;4.37;;
3769;SDS011;1900;48.890;9.190;2024-03-02T10:39:11;9.53;;;4.60;;
3769;SDS011;1900;48.890;9.190;2024-03-02T10:41:39;4.80;;;4.10;;
3769;SDS011;1900;48.890;9.190;2024-03-02T10:44:06;5.83;;;4.03;;
3769;SDS011;1900;48.890;9.190;2024-03-02T10:46:33;4.03;;;3.43;;
3769;SDS011;1900;48.890;9.190;2024-03-02T10:49:01;5.80;;;4.20;;
3769;SDS011;1900;48.890;9.190;2024-03-02T10:51:29;3.90;;;3.30;;
3769;SDS011;1900;48.890;9.190;2024-03-02T10:54:02;4.00;;;3.40;;
3769;SDS011;1900;48.890;9.190;2024-03-02T11:01:51;5.50;;;4.13;;
3769;SDS011;1900;48.890;9.190;2024-03-02T11:04:26;4.43;;;3.50;;
3769;SDS011;1900;48.890;9.190;2024-03-02T11:06:54;4.50;;;3.40;;
3769;SDS011;1900;48.890;9.190;2024-03-02T11:09:25;6.30;;;3.20;;
3769;SDS011;1900;48.890;9.190;2024-03-02T11:12:00;5.50;;;3.97;;
3769;SDS011;1900;48.890;9.190;2024-03-02T11:14:30;7.20;;;3.37;;
3769;SDS011;1900;48.890;9.190;2024-03-02T11:17:00;4.60;;;2.97;;
3769;SDS011;1900;48.890;9.190;2024-03-02T11:19:28;5.73;;;3.70;;
3769;SDS011;1900;48.890;9.190;2024-03-02T11:21:56;5.00;;;3.67;;
3769;SDS011;1900;48.890;9.190;2024-03-02T11:27:04;6.83;;;4.10;;
3769;SDS011;1900;48.890;9.190;2024-03-02T11:32:14;4.70;;;3.00;;
3769;SDS011;1900;48.890;9.190;2024-03-02T11:34:49;3.40;;;2.80;;
3769;SDS011;1900;48.890;9.190;2024-03-02T11:37:15;5.20;;;3.60;;
3769;SDS011;1900;48.890;9.190;2024-03-02T11:39:49;3.30;;;2.80;;
3769;SDS011;1900;48.890;9.190;2024-03-02T11:42:15;3.07;;;2.43;;
3769;SDS011;1900;48.890;9.190;2024-03-02T11:44:42;3.10;;;2.43;;
3769;SDS011;1900;48.890;9.190;2024-03-02T11:47:15;3.33;;;2.70;;
3769;SDS011;1900;48.890;9.190;2024-03-02T11:49:49;4.00;;;2.70;;
3769;SDS011;1900;48.890;9.190;2024-03-02T11:52:19;2.50;;;1.97;;
3769;SDS011;1900;48.890;9.190;2024-03-02T11:54:47;3.40;;;2.37;;
3769;SDS011;1900;48.890;9.190;2024-03-02T11:57:20;4.03;;;3.20;;
3769;SDS011;1900;48.890;9.190;2024-03-02T11:59:51;3.80;;;2.77;;
3769;SDS011;1900;48.890;9.190;2024-03-02T12:02:18;4.30;;;2.90;;
3769;SDS011;1900;48.890;9.190;2024-03-02T12:04:45;3.50;;;2.40;;
3769;SDS011;1900;48.890;9.190;2024-03-02T12:07:18;3.37;;;2.33;;
3769;SDS011;1900;48.890;9.190;2024-03-02T12:09:49;4.27;;;2.73;;
3769;SDS011;1900;48.890;9.190;2024-03-02T12:12:24;2.50;;;2.30;;
3769;SDS011;1900;48.890;9.190;2024-03-02T12:14:52;3.07;;;2.37;;
3769;SDS011;1900;48.890;9.190;2024-03-02T12:17:20;6.37;;;3.27;;
3769;SDS011;1900;48.890;9.190;2024-03-02T12:19:47;3.60;;;2.57;;
3769;SDS011;1900;48.890;9.190;2024-03-02T12:22:13;4.27;;;3.00;;
3769;SDS011;1900;48.890;9.190;2024-03-02T12:24:41;4.90;;;3.63;;
3769;SDS011;1900;48.890;9.190;2024-03-02T12:27:07;6.40;;;3.60;;
3769;SDS011;1900;48.890;9.190;2024-03-02T12:29:33;4.90;;;3.10;;
3769;SDS011;1900;48.890;9.190;2024-03-02T12:31:59;3.60;;;2.63;;
3769;SDS011;1900;48.890;9.190;2024-03-02T12:34:27;3.00;;;2.57;;
3769;SDS011;1900;48.890;9.190;2024-03-02T12:36:53;3.20;;;2.40;;
3769;SDS011;1900;48.890;9.190;2024-03-02T12:39:19;2.20;;;2.00;;
3769;SDS011;1900;48.890;9.190;2024-03-02T12:41:49;3.40;;;2.67;;
3769;SDS011;1900;48.890;9.190;2024-03-02T12:44:19;3.13;;;2.10;;
3769;SDS011;1900;48.890;9.190;2024-03-02T12:46:45;6.13;;;2.00;;
3769;SDS011;1900;48.890;9.190;2024-03-02T12:49:12;7.03;;;2.80;;
3769;SDS011;1900;48.890;9.190;2024-03-02T12:51:41;2.57;;;1.73;;
3769;SDS011;1900;48.890;9.190;2024-03-02T12:54:08;2.33;;;1.93;;
3769;SDS011;1900;48.890;9.190;2024-03-02T12:56:35;3.07;;;1.80;;
3769;SDS011;1900;48.890;9.190;2024-03-02T12:59:05;2.23;;;1.90;;
3769;SDS011;1900;48.890;9.190;2024-03-02T13:01:31;3.13;;;2.07;;
3769;SDS011;1900;48.890;9.190;2024-03-02T13:03:57;2.90;;;2.27;;
3769;SDS011;1900;48.890;9.190;2024-03-02T13:06:24;2.33;;;1.70;;
3769;SDS011;1900;48.890;9.190;2024-03-02T13:08:53;2.13;;;1.80;;
3769;SDS011;1900;48.890;9.190;2024-03-02T13:11:20;1.63;;;1.50;;
3769;SDS011;1900;48.890;9.190;2024-03-02T13:13:48;2.80;;;2.10;;
3769;SDS011;1900;48.890;9.190;2024-03-02T13:16:14;2.03;;;1.80;;
3769;SDS011;1900;48.890;9.190;2024-03-02T13:18:41;3.13;;;1.40;;
3769;SDS011;1900;48.890;9.190;2024-03-02T13:21:09;2.03;;;1.83;;
3769;SDS011;1900;48.890;9.190;2024-03-02T13:23:35;2.53;;;1.80;;
3769;SDS011;1900;48.890;9.190;2024-03-02T13:26:01;2.60;;;1.80;;
3769;SDS011;1900;48.890;9.190;2024-03-02T13:28:27;2.10;;;1.90;;
3769;SDS011;1900;48.890;9.190;2024-03-02T13:30:53;2.03;;;1.80;;
3769;SDS011;1900;48.890;9.190;2024-03-02T13:33:19;2.13;;;1.77;;
3769;SDS011;1900;48.890;9.190;2024-03-02T13:35:50;1.33;;;1.23;;
3769;SDS011;1900;48.890;9.190;2024-03-02T13:38:19;2.00;;;1.83;;
3769;SDS011;1900;48.890;9.190;2024-03-02T13:40:45;2.67;;;1.60;;
3769;SDS011;1900;48.890;9.190;2024-03-02T13:43:15;3.37;;;2.33;;
3769;SDS011;1900;48.890;9.190;2024-03-02T13:45:42;2.93;;;2.63;;
3769;SDS011;1900;48.890;9.190;2024-03-02T13:48:07;1.40;;;1.30;;
3769;SDS011;1900;48.890;9.190;2024-03-02T13:50:33;2.00;;;1.70;;
3769;SDS011;1900;48.890;9.190;2024-03-02T13:52:59;2.10;;;1.70;;
3769;SDS011;1900;48.890;9.190;2024-03-02T13:55:25;3.43;;;2.20;;
3769;SDS011;1900;48.890;9.190;2024-03-02T13:57:51;1.97;;;1.63;;
3769;SDS011;1900;48.890;9.190;2024-03-02T14:00:17;2.13;;;1.93;;
3769;SDS011;1900;48.890;9.190;2024-03-02T14:02:43;1.87;;;1.50;;
3769;SDS011;1900;48.890;9.190;2024-03-02T14:05:09;2.00;;;1.57;;
3769;SDS011;1900;48.890;9.190;2024-03-02T14:07:40;1.33;;;1.20;;
3769;SDS011;1900;48.890;9.190;2024-03-02T14:10:07;1.27;;;1.03;;
3769;SDS011;1900;48.890;9.190;2024-03-02T14:12:36;2.40;;;1.77;;
3769;SDS011;1900;48.890;9.190;2024-03-02T14:15:02;3.40;;;2.47;;
3769;SDS011;1900;48.890;9.190;2024-03-02T14:17:29;34.97;;;19.93;;
3769;SDS011;1900;48.890;9.190;2024-03-02T14:19:56;14.53;;;7.83;;
3769;SDS011;1900;48.890;9.190;2024-03-02T14:22:24;14.27;;;8.10;;
3769;SDS011;1900;48.890;9.190;2024-03-02T14:24:50;8.30;;;4.67;;
3769;SDS011;1900;48.890;9.190;2024-03-02T14:27:16;13.93;;;7.47;;
3769;SDS011;1900;48.890;9.190;2024-03-02T14:29:42;4.63;;;3.40;;
3769;SDS011;1900;48.890;9.190;2024-03-02T14:32:08;12.17;;;7.80;;
3769;SDS011;1900;48.890;9.190;2024-03-02T14:34:34;3.33;;;2.00;;
3769;SDS011;1900;48.890;9.190;2024-03-02T14:37:00;5.03;;;2.20;;
3769;SDS011;1900;48.890;9.190;2024-03-02T14:39:26;9.73;;;5.17;;
3769;SDS011;1900;48.890;9.190;2024-03-02T14:41:52;2.73;;;1.90;;
3769;SDS011;1900;48.890;9.190;2024-03-02T14:44:18;2.33;;;1.90;;
3769;SDS011;1900;48.890;9.190;2024-03-02T14:46:46;5.40;;;3.23;;
3769;SDS011;1900;48.890;9.190;2024-03-02T14:49:12;3.03;;;2.33;;
3769;SDS011;1900;48.890;9.190;2024-03-02T14:51:38;5.90;;;3.50;;
3769;SDS011;1900;48.890;9.190;2024-03-02T14:54:04;4.70;;;3.10;;
3769;SDS011;1900;48.890;9.190;2024-03-02T14:56:30;2.40;;;2.20;;
3769;SDS011;1900;48.890;9.190;2024-03-02T14:58:56;3.30;;;2.53;;
3769;SDS011;1900;48.890;9.190;2024-03-02T15:01:21;2.17;;;1.87;;
3769;SDS011;1900;48.890;9.190;2024-03-02T15:03:49;5.90;;;3.10;;
3769;SDS011;1900;48.890;9.190;2024-03-02T15:06:18;3.20;;;2.07;;
3769;SDS011;1900;48.890;9.190;2024-03-02T15:08:44;2.47;;;1.80;;
3769;SDS011;1900;48.890;9.190;2024-03-02T15:11:11;2.20;;;2.00;;